aviador You're here:

KMQY Decoded Metar

SMYRNA in TN, USA
Report Time2017-05-26 12:56:00
UTC Time2017-05-26 13:11:01
Flight Rules vfr VFR
Wind180° at 04 kt
W.Decomp.*RWY 19: 4.0 kt HW 0.6 kt LCW
RWY 14: 3.0 kt HW 2.7 kt RCW
W.Rank180° ranks 2
Current wind is below 180° avg. (6.5)
Visibility9999 m
Phenomena:N/A
Clouds:N/A
Expected CloudBase > 2,000 ft AGL from Temp-Dew spread
CeilingNone
Temp18°C (ISA +4)
Dew Point13°C (73% RH)
AAT17.5°C
QNH1016 hPa
Density Alt1,125 ft
Elevation545 ft
Report Wrong Elevation
Raw Report
METAR KMQY 261256Z 18004KT 10SM CLR 18/13 A2999 RMK AO2 SLP066 T01780133=

Extra information for KMQY:More info

Metar Taf Metar & Taf Last 4 Metars F.Rules Stats Wind Profile Meteogram Temp Stats Airport Information Weather charts Add Link Nearby VenuesMetar ALERT Operation Metar Decoded Social comments

AIRNAV info for KMQY